Time;durP1;ratioP1;P1;durP2;ratioP2;P2;SDS_P1;SDS_P2;PMS_P1;PMS_P2;Temp;Humidity;BMP_temperature;BMP_pressure;BME280_temperature;BME280_humidity;BME280_pressure;Samples;Min_cycle;Max_cycle;Signal;HPM_P1;HPM_P2
2022/08/23 00:00:34;;;;;;;2.50;2.15;;;15.50;60.40;;;;;;5070454;28;20194;-35
2022/08/23 00:03:05;;;;;;;3.05;2.47;;;15.60;60.40;;;;;;5075636;28;20650;-34
2022/08/23 00:05:36;;;;;;;3.30;2.47;;;15.60;60.40;;;;;;5089308;28;20218;-35
2022/08/23 00:08:09;;;;;;;2.47;2.28;;;15.60;60.40;;;;;;5090184;28;20213;-35
2022/08/23 00:10:40;;;;;;;2.33;2.05;;;15.70;60.50;;;;;;5090025;28;20251;-34
2022/08/23 00:13:12;;;;;;;2.47;2.28;;;15.70;60.40;;;;;;5090282;28;20650;-34
2022/08/23 00:15:43;;;;;;;3.05;2.50;;;15.70;60.40;;;;;;5090391;28;20198;-34
2022/08/23 00:18:15;;;;;;;2.75;2.45;;;15.70;60.40;;;;;;5071727;28;20214;-36
2022/08/23 00:20:46;;;;;;;3.75;2.17;;;15.70;60.40;;;;;;5073193;28;20697;-34
2022/08/23 00:23:17;;;;;;;2.97;2.63;;;15.80;60.40;;;;;;5090018;28;20194;-34
2022/08/23 00:25:47;;;;;;;2.50;2.30;;;15.80;60.50;;;;;;5089934;28;20226;-34
2022/08/23 00:28:20;;;;;;;2.30;2.10;;;15.90;60.60;;;;;;5089821;28;20596;-37
2022/08/23 00:30:50;;;;;;;3.22;2.17;;;15.90;60.60;;;;;;5089727;28;20201;-34
2022/08/23 00:33:21;;;;;;;2.20;2.00;;;15.90;60.70;;;;;;5089985;28;20202;-34
2022/08/23 00:35:52;;;;;;;2.28;2.08;;;15.90;60.60;;;;;;5085361;28;20199;-35
2022/08/23 00:38:24;;;;;;;2.63;2.25;;;15.90;60.60;;;;;;5069508;28;20218;-34
2022/08/23 00:40:55;;;;;;;2.40;2.15;;;15.90;60.60;;;;;;5072653;28;20227;-34
2022/08/23 00:49:19;;;;;;;2.28;2.08;;;16.00;60.50;;;;;;5069727;28;20267;-35
2022/08/23 00:51:56;;;;;;;2.55;2.15;;;16.10;60.60;;;;;;5069148;28;20202;-35
2022/08/23 00:54:28;;;;;;;2.15;1.95;;;16.10;60.50;;;;;;5069041;28;20229;-35
2022/08/23 00:57:03;;;;;;;2.25;2.05;;;16.10;60.50;;;;;;5069043;28;20222;-34
2022/08/23 00:59:36;;;;;;;2.30;2.10;;;16.10;60.60;;;;;;5069385;28;20218;-35
2022/08/23 01:02:07;;;;;;;2.40;2.20;;;16.20;60.70;;;;;;5069460;28;20194;-34
2022/08/23 01:04:43;;;;;;;2.05;1.95;;;16.20;60.70;;;;;;5069327;28;20198;-34
2022/08/23 01:07:21;;;;;;;2.28;2.08;;;16.20;60.70;;;;;;5082365;28;20232;-36
2022/08/23 01:09:54;;;;;;;2.72;1.95;;;16.30;60.70;;;;;;5089416;28;20202;-35
2022/08/23 01:12:33;;;;;;;2.75;2.20;;;16.30;60.70;;;;;;5089262;28;20202;-34
2022/08/23 01:15:11;;;;;;;2.58;2.10;;;16.30;60.70;;;;;;5089424;28;20190;-36
2022/08/23 01:17:45;;;;;;;3.08;2.13;;;16.30;60.70;;;;;;5074990;28;20202;-35
2022/08/23 01:20:20;;;;;;;2.83;2.00;;;16.40;60.70;;;;;;5074196;28;20642;-35
2022/08/23 01:22:58;;;;;;;2.63;2.00;;;16.40;60.70;;;;;;5070434;28;20198;-36
2022/08/23 01:25:34;;;;;;;2.15;1.95;;;16.40;60.60;;;;;;5068267;28;20213;-35
2022/08/23 01:28:05;;;;;;;1.88;1.73;;;16.50;60.70;;;;;;5068775;28;20234;-35
2022/08/23 01:30:37;;;;;;;2.20;2.00;;;16.50;60.80;;;;;;5069029;28;20203;-37
2022/08/23 01:33:09;;;;;;;2.55;1.90;;;16.50;60.80;;;;;;5068969;28;20625;-42
2022/08/23 01:35:43;;;;;;;2.30;2.10;;;16.50;60.70;;;;;;5069089;28;20195;-35
2022/08/23 01:38:15;;;;;;;3.00;2.30;;;16.50;60.80;;;;;;5068711;28;20704;-40
2022/08/23 01:40:48;;;;;;;2.35;2.15;;;16.50;60.70;;;;;;5068303;28;20198;-38
2022/08/23 01:43:20;;;;;;;1.98;1.77;;;16.60;60.70;;;;;;5068545;28;20195;-38
2022/08/23 01:45:52;;;;;;;2.33;2.13;;;16.60;60.70;;;;;;5068766;28;20531;-35
2022/08/23 01:48:24;;;;;;;3.05;2.10;;;16.60;60.70;;;;;;5069107;28;20222;-35
2022/08/23 01:50:55;;;;;;;2.70;1.95;;;16.70;60.70;;;;;;5068436;28;20199;-34
2022/08/23 01:53:26;;;;;;;2.33;2.00;;;16.70;60.70;;;;;;5068909;28;20198;-38
2022/08/23 01:56:00;;;;;;;2.13;1.92;;;16.70;60.60;;;;;;5071915;28;20245;-35
2022/08/23 01:58:32;;;;;;;2.55;1.95;;;16.70;60.60;;;;;;5072295;28;20227;-35
2022/08/23 02:01:03;;;;;;;2.08;1.85;;;16.80;60.60;;;;;;5090932;28;20198;-35
2022/08/23 02:03:36;;;;;;;3.08;2.35;;;16.80;60.60;;;;;;5092906;28;20213;-35
2022/08/23 02:06:07;;;;;;;1.75;1.65;;;16.90;60.60;;;;;;5092233;28;20257;-35
2022/08/23 02:11:27;;;;;;;2.22;1.83;;;16.90;60.50;;;;;;5092547;28;20614;-34
2022/08/23 02:14:00;;;;;;;2.50;2.00;;;16.90;60.40;;;;;;5092466;28;20205;-36
2022/08/23 02:16:34;;;;;;;2.35;2.00;;;17.00;60.50;;;;;;5088675;28;20214;-37
2022/08/23 02:19:06;;;;;;;2.10;1.77;;;17.00;60.40;;;;;;5072113;28;20214;-35
2022/08/23 02:21:37;;;;;;;2.60;2.40;;;17.00;60.30;;;;;;5076521;28;20198;-37
2022/08/23 02:24:10;;;;;;;2.53;1.88;;;17.00;60.20;;;;;;5092441;28;20202;-35
2022/08/23 02:26:46;;;;;;;2.00;1.80;;;17.10;60.20;;;;;;5092170;28;20744;-35
2022/08/23 02:29:19;;;;;;;2.20;2.00;;;17.10;60.10;;;;;;5092399;28;20240;-34
2022/08/23 02:31:50;;;;;;;2.85;2.00;;;17.20;60.20;;;;;;5092354;28;20191;-35
2022/08/23 02:34:21;;;;;;;2.08;1.88;;;17.20;60.20;;;;;;5091774;28;20191;-35
2022/08/23 02:36:52;;;;;;;2.55;2.00;;;17.20;60.10;;;;;;5085294;28;20193;-36
2022/08/23 02:39:23;;;;;;;2.20;1.95;;;17.30;60.20;;;;;;5071810;28;20223;-36
2022/08/23 02:41:56;;;;;;;1.70;1.60;;;17.30;60.30;;;;;;5071438;28;20198;-35
2022/08/23 02:44:26;;;;;;;2.58;2.00;;;17.30;60.20;;;;;;5071276;28;20654;-42
2022/08/23 02:46:57;;;;;;;2.15;2.03;;;17.40;60.30;;;;;;5071155;28;20233;-36
2022/08/23 02:49:28;;;;;;;1.80;1.70;;;17.40;60.30;;;;;;5072635;28;20213;-36
2022/08/23 02:51:58;;;;;;;2.25;1.80;;;17.40;60.20;;;;;;5076960;28;20680;-35
2022/08/23 02:54:29;;;;;;;2.25;1.98;;;17.40;60.10;;;;;;5091348;28;20206;-35
2022/08/23 02:57:02;;;;;;;3.00;2.20;;;17.50;60.10;;;;;;5091501;28;20202;-35
2022/08/23 02:59:32;;;;;;;2.53;1.90;;;17.50;60.00;;;;;;5091730;28;20635;-39
2022/08/23 03:02:03;;;;;;;3.88;2.30;;;17.60;60.00;;;;;;5091714;28;20190;-36
2022/08/23 03:04:34;;;;;;;1.70;1.60;;;17.60;60.00;;;;;;5091725;28;20198;-35
2022/08/23 03:07:05;;;;;;;2.03;1.80;;;17.70;60.10;;;;;;5084276;28;20223;-34
2022/08/23 03:09:36;;;;;;;2.63;1.70;;;17.70;60.10;;;;;;5070977;28;20214;-35
2022/08/23 03:12:09;;;;;;;1.83;1.63;;;17.70;60.00;;;;;;5073251;28;20195;-35
2022/08/23 03:14:40;;;;;;;2.67;1.80;;;17.80;60.00;;;;;;5070985;28;20216;-35
2022/08/23 03:17:11;;;;;;;2.85;1.90;;;17.80;60.00;;;;;;5070692;28;20199;-35
2022/08/23 03:19:42;;;;;;;2.50;2.00;;;17.80;60.00;;;;;;5070498;28;20698;-37
2022/08/23 03:22:12;;;;;;;2.13;1.92;;;17.90;60.00;;;;;;5070391;28;20203;-39
2022/08/23 03:24:43;;;;;;;2.03;1.85;;;17.90;59.90;;;;;;5071154;28;20195;-39
2022/08/23 03:27:16;;;;;;;3.42;2.10;;;18.00;60.00;;;;;;5070864;28;20229;-35
2022/08/23 03:29:47;;;;;;;1.70;1.60;;;18.00;59.90;;;;;;5070897;28;20229;-35
2022/08/23 03:32:17;;;;;;;1.90;1.65;;;18.00;59.90;;;;;;5070569;28;20549;-35
2022/08/23 03:34:48;;;;;;;1.98;1.60;;;18.10;59.80;;;;;;5070762;28;20206;-36
2022/08/23 03:37:18;;;;;;;2.30;1.77;;;18.10;59.70;;;;;;5076926;28;20545;-35
2022/08/23 03:39:49;;;;;;;2.72;1.95;;;18.10;59.70;;;;;;5090412;28;20210;-35
2022/08/23 03:42:22;;;;;;;2.20;2.00;;;18.20;59.70;;;;;;5090106;28;20198;-35
2022/08/23 03:44:52;;;;;;;1.98;1.77;;;18.20;59.70;;;;;;5090976;28;20194;-41
2022/08/23 03:47:23;;;;;;;2.20;1.88;;;18.20;59.70;;;;;;5079679;28;20226;-36
2022/08/23 03:49:54;;;;;;;2.13;1.92;;;18.30;59.70;;;;;;5070748;28;20223;-39
2022/08/23 03:52:24;;;;;;;1.98;1.85;;;18.30;59.80;;;;;;5076503;28;20201;-36
2022/08/23 03:54:55;;;;;;;2.67;1.70;;;18.30;59.70;;;;;;5090487;28;20205;-37
2022/08/23 03:57:27;;;;;;;2.13;1.85;;;18.40;59.80;;;;;;5090541;28;20186;-35
2022/08/23 03:59:58;;;;;;;3.03;2.30;;;18.40;59.70;;;;;;5090584;28;20217;-36
2022/08/23 04:02:29;;;;;;;1.85;1.73;;;18.50;59.70;;;;;;5090875;28;20202;-36
2022/08/23 04:05:00;;;;;;;2.22;1.90;;;18.50;59.70;;;;;;5090551;28;20190;-35
2022/08/23 04:07:30;;;;;;;2.00;1.80;;;18.50;59.50;;;;;;5089063;28;20222;-35
2022/08/23 04:10:01;;;;;;;1.90;1.70;;;18.60;60.20;;;;;;5090145;28;20221;-36
2022/08/23 04:12:34;;;;;;;2.13;1.80;;;18.60;59.50;;;;;;5089914;28;20197;-36
2022/08/23 04:15:05;;;;;;;1.95;1.85;;;18.60;59.40;;;;;;5090297;28;20194;-35
2022/08/23 04:17:35;;;;;;;1.75;1.65;;;18.60;59.40;;;;;;5076186;28;20213;-36
2022/08/23 04:20:07;;;;;;;2.33;2.03;;;18.70;59.40;;;;;;5069744;28;20205;-35
2022/08/23 04:22:38;;;;;;;1.80;1.70;;;18.70;59.40;;;;;;5076264;28;20194;-34
2022/08/23 04:25:09;;;;;;;2.05;1.85;;;18.70;59.40;;;;;;5089726;28;20194;-37
2022/08/23 04:27:41;;;;;;;3.50;2.03;;;18.80;59.40;;;;;;5089203;28;20221;-35
2022/08/23 04:30:13;;;;;;;1.70;1.60;;;18.80;59.30;;;;;;5089462;28;20552;-35
2022/08/23 04:32:44;;;;;;;2.20;1.90;;;18.80;59.30;;;;;;5089426;28;20194;-37
2022/08/23 04:35:14;;;;;;;2.40;1.98;;;18.80;59.30;;;;;;5089915;28;20209;-38
2022/08/23 04:37:45;;;;;;;2.22;1.45;;;18.90;59.30;;;;;;5082109;28;20292;-35
2022/08/23 04:43:05;;;;;;;2.00;1.80;;;18.90;59.10;;;;;;5069459;28;20203;-36
2022/08/23 04:45:36;;;;;;;3.05;1.73;;;18.90;59.10;;;;;;5071752;28;20195;-35
2022/08/23 04:48:07;;;;;;;1.80;1.70;;;19.00;59.20;;;;;;5069337;28;20241;-35
2022/08/23 04:50:38;;;;;;;2.08;1.90;;;19.00;59.20;;;;;;5069032;28;20557;-35
2022/08/23 04:53:10;;;;;;;1.90;1.70;;;19.00;59.20;;;;;;5068849;28;20199;-36
2022/08/23 04:55:41;;;;;;;2.55;1.63;;;19.00;59.20;;;;;;5069248;28;20599;-35
2022/08/23 04:58:13;;;;;;;1.75;1.58;;;19.00;59.30;;;;;;5069255;28;20211;-35
2022/08/23 05:00:44;;;;;;;3.20;2.05;;;19.00;59.30;;;;;;5069210;28;20705;-35
2022/08/23 05:03:15;;;;;;;2.70;1.80;;;19.00;59.40;;;;;;5069301;28;20226;-35
2022/08/23 05:05:46;;;;;;;1.85;1.70;;;19.10;59.40;;;;;;5069375;28;20201;-35
2022/08/23 05:08:17;;;;;;;1.88;1.67;;;19.10;59.40;;;;;;5078710;28;20218;-36
2022/08/23 05:10:47;;;;;;;2.00;1.50;;;19.10;59.40;;;;;;5089389;28;20198;-35
2022/08/23 05:13:20;;;;;;;2.42;1.80;;;19.10;59.30;;;;;;5089301;28;20197;-35
2022/08/23 05:15:53;;;;;;;2.10;1.75;;;19.10;59.20;;;;;;5085792;28;20190;-36
2022/08/23 05:18:24;;;;;;;2.08;1.70;;;19.10;59.20;;;;;;5069533;28;20234;-35
2022/08/23 05:20:55;;;;;;;2.85;1.80;;;19.10;59.20;;;;;;5069043;28;20288;-35
2022/08/23 05:23:26;;;;;;;2.83;2.00;;;19.10;59.20;;;;;;5075236;28;20202;-35
2022/08/23 05:25:57;;;;;;;1.90;1.60;;;19.10;59.10;;;;;;5069174;28;20198;-35
2022/08/23 05:28:32;;;;;;;2.10;1.80;;;19.20;59.20;;;;;;5069925;28;20226;-35
2022/08/23 05:31:04;;;;;;;1.83;1.60;;;19.10;59.30;;;;;;5073297;28;20201;-37
2022/08/23 05:33:35;;;;;;;2.33;1.67;;;19.10;59.40;;;;;;5073372;28;20198;-37
2022/08/23 05:36:07;;;;;;;2.80;1.95;;;19.20;59.40;;;;;;5073057;28;20204;-35
2022/08/23 05:38:39;;;;;;;2.95;2.10;;;19.10;59.30;;;;;;5083919;28;20225;-35
2022/08/23 05:41:10;;;;;;;2.13;1.90;;;19.20;59.40;;;;;;5092904;28;20194;-34
2022/08/23 05:43:43;;;;;;;2.38;1.63;;;19.20;59.40;;;;;;5092934;28;20692;-35
2022/08/23 05:46:16;;;;;;;2.65;2.17;;;19.20;59.50;;;;;;5091208;28;20194;-35
2022/08/23 05:48:49;;;;;;;2.22;1.67;;;19.10;59.50;;;;;;5073175;28;20253;-41
2022/08/23 05:51:22;;;;;;;2.10;1.67;;;19.20;59.70;;;;;;5072747;28;20658;-34
2022/08/23 05:53:54;;;;;;;1.58;1.40;;;19.20;59.80;;;;;;5084788;28;20645;-38
2022/08/23 05:56:26;;;;;;;2.65;1.70;;;19.20;59.90;;;;;;5092609;28;20216;-34
2022/08/23 05:59:00;;;;;;;3.22;1.83;;;19.20;59.90;;;;;;5092668;28;20221;-34
2022/08/23 06:01:32;;;;;;;2.42;1.63;;;19.20;60.00;;;;;;5092396;28;20554;-35
2022/08/23 06:04:04;;;;;;;2.97;1.90;;;19.20;60.00;;;;;;5092183;28;20198;-38
2022/08/23 06:06:35;;;;;;;2.15;1.90;;;19.10;59.90;;;;;;5092493;28;20704;-34
2022/08/23 06:09:09;;;;;;;3.63;1.95;;;19.10;59.90;;;;;;5077870;28;20236;-37
2022/08/23 06:11:39;;;;;;;2.90;2.03;;;19.10;59.90;;;;;;5071482;28;20277;-40
2022/08/23 06:14:12;;;;;;;2.90;1.88;;;19.10;59.90;;;;;;5075105;28;20553;-34
2022/08/23 06:16:44;;;;;;;1.80;1.60;;;19.10;60.00;;;;;;5072017;28;20199;-34
2022/08/23 06:19:16;;;;;;;1.90;1.80;;;19.10;59.80;;;;;;5072148;28;20219;-38
2022/08/23 06:21:47;;;;;;;2.05;1.60;;;19.10;59.70;;;;;;5072403;28;20939;-35
2022/08/23 06:24:18;;;;;;;2.42;2.22;;;19.00;59.60;;;;;;5071800;28;20199;-34
2022/08/23 06:26:48;;;;;;;2.20;1.90;;;19.10;59.70;;;;;;5071518;28;20199;-34
2022/08/23 06:29:22;;;;;;;3.38;1.70;;;19.00;59.60;;;;;;5071587;28;20691;-34
2022/08/23 06:31:54;;;;;;;2.15;1.80;;;19.00;59.60;;;;;;5071675;28;20203;-34
2022/08/23 06:34:28;;;;;;;2.30;1.90;;;19.00;59.60;;;;;;5071417;28;20199;-34
2022/08/23 06:37:00;;;;;;;2.20;1.80;;;19.00;59.60;;;;;;5071281;28;20194;-35
2022/08/23 06:39:32;;;;;;;2.90;2.00;;;18.90;59.50;;;;;;5086694;28;20229;-35
2022/08/23 06:42:04;;;;;;;2.17;1.95;;;18.90;59.50;;;;;;5090989;28;20202;-36
2022/08/23 06:44:37;;;;;;;3.13;2.22;;;18.90;59.60;;;;;;5091832;28;20194;-34
2022/08/23 06:47:10;;;;;;;2.10;1.90;;;18.90;59.60;;;;;;5082274;28;20199;-36
2022/08/23 06:49:40;;;;;;;2.72;2.30;;;18.80;59.60;;;;;;5071768;28;20901;-35
2022/08/23 06:52:11;;;;;;;4.10;2.47;;;18.80;59.50;;;;;;5072327;28;20195;-34
2022/08/23 06:54:43;;;;;;;2.83;2.03;;;18.90;59.50;;;;;;5086199;28;20212;-35
2022/08/23 06:57:13;;;;;;;2.67;2.00;;;18.80;59.50;;;;;;5091250;28;20817;-34
2022/08/23 06:59:46;;;;;;;2.80;2.42;;;18.80;59.50;;;;;;5091815;28;20210;-36
2022/08/23 07:02:17;;;;;;;3.72;2.13;;;18.70;59.40;;;;;;5091477;28;20646;-34
2022/08/23 07:04:52;;;;;;;2.90;2.20;;;18.70;59.40;;;;;;5091337;28;20833;-38
2022/08/23 07:07:23;;;;;;;3.95;2.35;;;18.70;59.40;;;;;;5087529;28;20793;-34
2022/08/23 07:09:54;;;;;;;3.55;2.95;;;18.70;59.40;;;;;;5073216;28;20226;-39
2022/08/23 07:12:25;;;;;;;2.85;2.60;;;18.70;59.40;;;;;;5070941;28;20203;-35
2022/08/23 07:14:58;;;;;;;3.83;2.85;;;18.60;59.40;;;;;;5070839;28;20201;-39
2022/08/23 07:17:29;;;;;;;4.32;2.67;;;18.60;59.40;;;;;;5070690;28;20678;-34
2022/08/23 07:19:59;;;;;;;4.13;3.00;;;18.60;59.40;;;;;;5070782;28;20218;-37
2022/08/23 07:22:30;;;;;;;4.07;2.70;;;18.60;59.40;;;;;;5070895;28;20202;-36
2022/08/23 07:25:01;;;;;;;3.42;2.50;;;18.50;59.30;;;;;;5070680;28;20655;-34
2022/08/23 07:27:32;;;;;;;3.53;2.40;;;18.50;59.30;;;;;;5070623;28;20222;-34
2022/08/23 07:30:05;;;;;;;3.45;2.95;;;18.50;59.20;;;;;;5070937;28;20210;-40
2022/08/23 07:32:36;;;;;;;3.80;2.50;;;18.40;59.20;;;;;;5070886;28;20218;-35
2022/08/23 07:35:08;;;;;;;4.82;3.10;;;18.40;59.20;;;;;;5070570;28;20556;-39
2022/08/23 07:37:39;;;;;;;3.13;2.78;;;18.40;59.20;;;;;;5070582;28;20217;-36
2022/08/23 07:40:11;;;;;;;3.10;2.78;;;18.30;59.20;;;;;;5088083;28;20217;-35
2022/08/23 07:42:44;;;;;;;4.47;2.95;;;18.30;59.20;;;;;;5090928;28;20190;-34
2022/08/23 07:45:16;;;;;;;3.85;2.90;;;18.30;59.50;;;;;;5091023;28;20201;-36
2022/08/23 07:47:55;;;;;;;3.95;2.70;;;18.20;59.10;;;;;;5076170;28;20225;-42
2022/08/23 07:50:25;;;;;;;3.88;3.00;;;18.30;59.20;;;;;;5069763;28;20241;-35
2022/08/23 07:52:56;;;;;;;3.40;2.60;;;18.20;59.10;;;;;;5070296;28;20211;-37
2022/08/23 07:55:27;;;;;;;3.20;2.80;;;18.20;59.00;;;;;;5089617;28;20210;-38
2022/08/23 07:57:58;;;;;;;3.20;2.90;;;18.20;59.00;;;;;;5090631;28;20197;-36
2022/08/23 08:00:31;;;;;;;3.10;2.80;;;18.10;58.90;;;;;;5090267;28;20194;-37
2022/08/23 08:03:02;;;;;;;3.15;2.85;;;18.10;58.90;;;;;;5089846;28;20202;-41
2022/08/23 08:05:35;;;;;;;3.35;2.58;;;18.10;58.90;;;;;;5090439;28;20198;-34
2022/08/23 08:08:07;;;;;;;3.40;3.10;;;18.00;58.90;;;;;;5090303;28;20225;-34
2022/08/23 08:10:40;;;;;;;3.85;2.97;;;18.00;58.90;;;;;;5072366;28;20213;-35
2022/08/23 08:13:12;;;;;;;3.28;2.95;;;17.90;58.80;;;;;;5090021;28;20212;-37
2022/08/23 08:15:45;;;;;;;3.20;2.90;;;18.00;58.80;;;;;;5090502;28;20205;-34
2022/08/23 08:18:16;;;;;;;3.45;2.85;;;17.90;58.70;;;;;;5071645;28;20241;-35
2022/08/23 08:20:47;;;;;;;3.55;2.53;;;17.90;58.80;;;;;;5069934;28;20588;-34
2022/08/23 08:23:17;;;;;;;3.15;2.85;;;17.80;58.80;;;;;;5069833;28;20198;-34
2022/08/23 08:25:48;;;;;;;3.08;2.83;;;17.80;58.80;;;;;;5069925;28;20202;-39
2022/08/23 08:28:19;;;;;;;5.32;2.95;;;17.80;58.80;;;;;;5069730;28;20223;-36
2022/08/23 08:30:51;;;;;;;3.40;3.10;;;17.80;58.80;;;;;;5069485;28;20205;-34
2022/08/23 08:33:22;;;;;;;4.07;2.95;;;17.70;58.80;;;;;;5069901;28;20281;-37
2022/08/23 08:35:53;;;;;;;3.10;2.67;;;17.70;58.80;;;;;;5069627;28;20210;-34
2022/08/23 08:38:24;;;;;;;3.28;2.97;;;17.70;58.80;;;;;;5069505;28;20214;-34
2022/08/23 08:41:03;;;;;;;3.38;2.85;;;17.60;58.70;;;;;;5069385;28;20621;-34
2022/08/23 08:43:43;;;;;;;4.72;3.10;;;17.60;58.70;;;;;;5071486;28;20691;-35
2022/08/23 08:46:22;;;;;;;3.67;2.88;;;17.60;58.70;;;;;;5069237;28;20669;-35
2022/08/23 08:48:58;;;;;;;2.92;2.55;;;17.60;58.70;;;;;;5069408;28;20226;-33
2022/08/23 08:51:42;;;;;;;3.97;2.60;;;17.60;58.70;;;;;;5069582;28;20202;-34
2022/08/23 08:54:15;;;;;;;2.88;2.60;;;17.50;58.70;;;;;;5069313;28;20187;-34
2022/08/23 08:56:49;;;;;;;3.00;2.50;;;17.50;58.70;;;;;;5069477;28;20194;-35
2022/08/23 08:59:23;;;;;;;3.55;2.88;;;17.50;58.80;;;;;;5069185;28;20682;-40
2022/08/23 09:01:56;;;;;;;3.28;2.60;;;17.40;58.80;;;;;;5069163;28;20210;-34
2022/08/23 09:04:28;;;;;;;3.65;2.58;;;17.40;58.80;;;;;;5068942;28;20201;-34
2022/08/23 09:07:04;;;;;;;2.50;2.30;;;17.40;58.90;;;;;;5069444;28;20199;-33
2022/08/23 09:09:55;;;;;;;3.00;2.58;;;17.30;58.80;;;;;;5076856;28;20233;-35
2022/08/23 09:12:36;;;;;;;3.25;2.70;;;17.30;58.80;;;;;;5089446;28;20194;-34
2022/08/23 09:15:20;;;;;;;3.58;2.55;;;17.30;58.80;;;;;;5085992;28;20213;-35
2022/08/23 09:17:55;;;;;;;3.10;2.63;;;17.30;58.80;;;;;;5074049;28;20264;-36
2022/08/23 09:20:29;;;;;;;3.28;2.63;;;17.30;58.70;;;;;;5069499;28;20194;-34
2022/08/23 09:23:08;;;;;;;2.85;2.53;;;17.30;58.70;;;;;;5069345;28;20194;-37
2022/08/23 09:25:39;;;;;;;4.38;2.67;;;17.20;58.70;;;;;;5085288;28;20605;-37
2022/08/23 09:28:10;;;;;;;6.28;2.72;;;17.20;59.70;;;;;;5089166;28;20234;-42
2022/08/23 09:30:55;;;;;;;4.20;2.63;;;17.20;60.50;;;;;;5073350;28;20191;-38
2022/08/23 09:33:39;;;;;;;5.88;2.50;;;17.20;60.40;;;;;;5076797;28;20197;-37
2022/08/23 09:36:20;;;;;;;4.13;2.13;;;17.30;60.20;;;;;;5088845;28;20194;-36
2022/08/23 09:38:55;;;;;;;3.60;2.30;;;17.20;60.10;;;;;;5089751;28;20228;-38
2022/08/23 09:41:30;;;;;;;3.28;2.50;;;17.20;60.00;;;;;;5090471;28;20649;-35
2022/08/23 09:44:01;;;;;;;4.47;2.45;;;17.20;59.90;;;;;;5090099;28;20198;-39
2022/08/23 09:46:34;;;;;;;2.60;2.20;;;17.20;59.90;;;;;;5085504;28;20199;-47
2022/08/23 09:49:25;;;;;;;3.05;2.50;;;17.20;59.80;;;;;;5089855;28;20222;-37
2022/08/23 09:51:57;;;;;;;4.90;2.28;;;17.10;59.80;;;;;;5090066;28;20198;-45
2022/08/23 09:54:33;;;;;;;3.33;2.45;;;17.10;59.70;;;;;;5090007;28;20193;-41
2022/08/23 09:57:08;;;;;;;4.32;2.38;;;17.10;59.70;;;;;;5090013;28;20226;-39
2022/08/23 09:59:44;;;;;;;3.45;2.47;;;17.10;59.70;;;;;;5089276;28;20214;-35
2022/08/23 10:02:26;;;;;;;3.10;2.42;;;17.10;59.70;;;;;;5089590;28;20204;-41
2022/08/23 10:05:06;;;;;;;3.38;2.33;;;17.00;59.70;;;;;;5090049;28;20205;-44
2022/08/23 10:07:40;;;;;;;3.80;2.20;;;17.00;59.70;;;;;;5089337;28;20210;-38
2022/08/23 10:10:19;;;;;;;2.70;2.40;;;17.00;59.70;;;;;;5089123;28;20225;-44
2022/08/23 10:12:50;;;;;;;3.40;2.53;;;17.00;59.70;;;;;;5089543;28;20221;-39
2022/08/23 10:15:22;;;;;;;3.40;2.40;;;17.00;59.60;;;;;;5090179;28;20205;-35
2022/08/23 10:17:59;;;;;;;3.95;2.58;;;17.00;59.60;;;;;;5079059;28;20195;-36
2022/08/23 10:20:40;;;;;;;2.05;1.95;;;16.90;59.40;;;;;;5073275;28;20661;-40
2022/08/23 10:23:23;;;;;;;2.60;2.22;;;16.90;59.40;;;;;;5074846;28;20195;-40
2022/08/23 10:25:59;;;;;;;3.60;2.47;;;16.90;59.40;;;;;;5094026;28;20198;-34
2022/08/23 10:31:36;;;;;;;2.40;2.20;;;16.90;59.40;;;;;;5093577;28;20256;-37
2022/08/23 10:34:43;;;;;;;2.60;2.10;;;16.90;59.40;;;;;;5094476;28;20229;-34
2022/08/23 10:37:36;;;;;;;2.50;2.10;;;16.80;59.40;;;;;;5062695;28;20196;-40
2022/08/23 10:40:12;;;;;;;4.85;2.05;;;16.80;59.40;;;;;;5093810;28;20575;-42
2022/08/23 10:42:52;;;;;;;2.08;1.88;;;16.80;59.40;;;;;;5092987;28;20197;-40
2022/08/23 10:45:29;;;;;;;2.33;1.90;;;16.80;59.40;;;;;;5093418;28;20194;-36
2022/08/23 10:48:18;;;;;;;2.95;2.08;;;16.80;59.40;;;;;;5079499;28;20199;-43
2022/08/23 10:50:52;;;;;;;2.38;1.88;;;16.70;59.30;;;;;;5073440;28;20221;-44
2022/08/23 10:53:32;;;;;;;3.33;2.45;;;16.70;59.20;;;;;;5072666;28;20217;-43
2022/08/23 10:56:06;;;;;;;2.33;2.13;;;16.70;59.20;;;;;;5072884;28;20210;-37
2022/08/23 10:58:46;;;;;;;2.58;2.17;;;16.70;59.10;;;;;;5072377;28;20222;-42
2022/08/23 11:01:19;;;;;;;2.17;1.83;;;16.70;59.20;;;;;;5073131;28;20199;-44
2022/08/23 11:04:01;;;;;;;2.08;1.98;;;16.70;59.20;;;;;;5073015;28;20560;-41
2022/08/23 11:06:47;;;;;;;3.35;2.00;;;16.60;59.10;;;;;;5073438;28;20241;-45
2022/08/23 11:09:48;;;;;;;3.28;2.17;;;16.60;59.20;;;;;;5072623;28;20233;-40
2022/08/23 11:12:32;;;;;;;2.42;2.13;;;16.60;59.20;;;;;;5072835;28;20198;-40
2022/08/23 11:15:24;;;;;;;3.55;2.08;;;16.60;59.20;;;;;;5072723;28;20884;-43
2022/08/23 11:18:08;;;;;;;4.03;2.40;;;16.60;59.20;;;;;;5085242;28;20670;-45
2022/08/23 11:21:10;;;;;;;3.15;2.13;;;16.60;59.10;;;;;;5092720;28;20559;-45
2022/08/23 11:23:52;;;;;;;2.67;2.00;;;16.60;59.10;;;;;;5087933;28;20198;-37
2022/08/23 11:27:07;;;;;;;3.97;2.20;;;16.60;59.00;;;;;;5071957;28;20203;-44
2022/08/23 11:29:40;;;;;;;3.70;2.22;;;16.50;59.00;;;;;;5009622;28;20235;-41
2022/08/23 11:32:32;;;;;;;3.75;2.50;;;16.50;58.90;;;;;;5009821;28;20207;-42
2022/08/23 11:35:31;;;;;;;5.32;2.30;;;16.50;58.90;;;;;;5054781;28;20199;-42
2022/08/23 11:38:03;;;;;;;3.85;2.55;;;16.50;59.00;;;;;;5071492;28;20198;-37
2022/08/23 11:41:00;;;;;;;5.28;2.47;;;16.50;58.90;;;;;;5072694;28;20202;-45
2022/08/23 11:43:38;;;;;;;5.03;3.20;;;16.50;58.90;;;;;;5072025;28;20191;-44
2022/08/23 11:46:33;;;;;;;4.15;2.40;;;16.40;58.90;;;;;;5072250;28;20199;-44
2022/08/23 11:49:53;;;;;;;3.75;2.50;;;16.40;58.90;;;;;;5072335;28;20227;-44
2022/08/23 11:52:55;;;;;;;5.28;2.90;;;16.40;58.80;;;;;;5072691;28;20594;-41
2022/08/23 11:55:56;;;;;;;3.85;2.80;;;16.40;58.80;;;;;;5071740;28;20203;-37
2022/08/23 11:58:36;;;;;;;7.80;2.90;;;16.40;58.70;;;;;;5047022;28;20215;-37
2022/08/23 12:01:10;;;;;;;4.68;3.10;;;16.40;58.70;;;;;;5071522;28;20658;-44
2022/08/23 12:03:56;;;;;;;5.05;2.70;;;16.40;58.70;;;;;;5080477;28;20189;-40
2022/08/23 12:06:42;;;;;;;5.32;2.83;;;16.40;58.70;;;;;;5091582;28;20225;-43
2022/08/23 12:09:54;;;;;;;6.40;3.10;;;16.40;58.70;;;;;;5092181;28;20308;-45
2022/08/23 12:12:37;;;;;;;9.30;3.00;;;16.30;58.70;;;;;;5091607;28;20196;-46
2022/08/23 12:15:12;;;;;;;6.85;3.10;;;16.30;58.70;;;;;;5091671;28;20224;-41
2022/08/23 12:18:13;;;;;;;9.13;3.35;;;16.30;58.70;;;;;;5078401;28;20654;-43
2022/08/23 12:20:45;;;;;;;6.13;3.05;;;16.30;58.70;;;;;;5070997;28;20194;-35
2022/08/23 12:23:22;;;;;;;6.85;3.10;;;16.30;58.60;;;;;;5070770;28;20282;-38
2022/08/23 12:26:08;;;;;;;5.13;3.30;;;16.30;58.50;;;;;;5070564;28;20197;-44
2022/08/23 12:28:47;;;;;;;6.90;3.47;;;16.30;58.50;;;;;;5074259;28;20221;-40
2022/08/23 12:31:27;;;;;;;10.35;3.63;;;16.30;58.40;;;;;;5073597;28;20202;-43
2022/08/23 12:34:13;;;;;;;5.10;3.00;;;16.20;58.30;;;;;;5070405;28;20199;-37
2022/08/23 12:36:49;;;;;;;8.18;3.08;;;16.20;58.40;;;;;;5070137;28;20191;-39
2022/08/23 12:39:27;;;;;;;8.65;3.13;;;16.20;58.40;;;;;;5069409;28;20248;-39
2022/08/23 12:42:04;;;;;;;7.22;3.53;;;16.20;58.50;;;;;;5069981;28;20288;-36
2022/08/23 12:44:35;;;;;;;7.53;2.80;;;16.20;58.50;;;;;;5075459;28;20186;-41
2022/08/23 12:47:17;;;;;;;5.97;2.78;;;16.20;58.50;;;;;;5081582;28;20212;-40
2022/08/23 12:49:59;;;;;;;5.93;3.28;;;16.20;58.40;;;;;;5071902;28;20230;-41
2022/08/23 12:52:32;;;;;;;5.07;2.88;;;16.20;58.40;;;;;;5069822;28;20221;-38
2022/08/23 12:55:03;;;;;;;5.55;3.03;;;16.20;58.40;;;;;;5069936;28;20203;-44
2022/08/23 12:57:41;;;;;;;8.70;3.47;;;16.20;58.30;;;;;;5069968;28;20194;-34
2022/08/23 13:00:23;;;;;;;5.97;3.05;;;16.20;58.30;;;;;;5069841;28;20214;-42
2022/08/23 13:03:00;;;;;;;7.22;3.03;;;16.10;58.20;;;;;;5070158;28;20191;-37
2022/08/23 13:05:42;;;;;;;4.50;2.53;;;16.10;58.30;;;;;;5070147;28;20202;-37
2022/08/23 13:08:15;;;;;;;6.47;3.35;;;16.10;58.30;;;;;;5070153;28;20203;-40
2022/08/23 13:10:47;;;;;;;6.20;3.13;;;16.10;58.30;;;;;;5070036;28;20218;-38
2022/08/23 13:13:26;;;;;;;6.13;2.88;;;16.10;58.90;;;;;;5069807;28;20201;-40
2022/08/23 13:15:58;;;;;;;5.03;3.03;;;16.00;58.40;;;;;;5069635;28;20210;-37
2022/08/23 13:18:44;;;;;;;5.72;2.80;;;16.00;58.40;;;;;;5069780;28;20218;-38
2022/08/23 13:21:29;;;;;;;7.07;3.10;;;16.00;58.30;;;;;;5067826;28;20202;-34
2022/08/23 13:24:01;;;;;;;4.68;2.83;;;16.00;58.20;;;;;;5070005;28;20191;-40
2022/08/23 13:26:39;;;;;;;4.40;2.90;;;16.00;58.20;;;;;;5069394;28;20702;-38
2022/08/23 13:29:25;;;;;;;6.10;3.15;;;16.00;58.20;;;;;;5069215;28;20221;-37
2022/08/23 13:32:00;;;;;;;6.63;2.92;;;16.00;58.70;;;;;;5069542;28;20191;-37
2022/08/23 13:34:52;;;;;;;4.03;2.67;;;16.00;58.10;;;;;;5069700;28;20787;-42
2022/08/23 13:37:27;;;;;;;4.05;2.85;;;16.00;58.10;;;;;;5069712;28;20285;-38
2022/08/23 13:40:00;;;;;;;4.80;3.00;;;15.90;58.10;;;;;;5069648;28;20217;-41
2022/08/23 13:42:38;;;;;;;4.55;2.75;;;15.90;58.10;;;;;;5069331;28;20194;-45